createdAt,value
2023-05-13T00:02:08.413Z,6.18
2023-05-13T00:04:35.665Z,5.72
2023-05-13T00:07:03.923Z,6.22
2023-05-13T00:09:31.065Z,6.53
2023-05-13T00:11:58.241Z,6.63
2023-05-13T00:14:25.780Z,7.22
2023-05-13T00:16:53.214Z,8.18
2023-05-13T00:19:20.686Z,7.43
2023-05-13T00:21:47.999Z,6.95
2023-05-13T00:24:15.307Z,7.93
2023-05-13T00:26:42.665Z,7.82
2023-05-13T00:29:09.805Z,7.13
2023-05-13T00:31:37.801Z,7.93
2023-05-13T00:34:05.614Z,6.90
2023-05-13T00:36:33.009Z,7.90
2023-05-13T00:39:00.489Z,7.78
2023-05-13T00:41:27.699Z,8.50
2023-05-13T00:43:56.809Z,8.05
2023-05-13T00:46:24.504Z,8.77
2023-05-13T00:48:52.063Z,8.10
2023-05-13T00:51:19.273Z,8.05
2023-05-13T00:53:46.963Z,9.00
2023-05-13T00:56:15.137Z,8.52
2023-05-13T00:58:42.267Z,9.60
2023-05-13T01:01:15.755Z,9.27
2023-05-13T01:03:49.109Z,9.18
2023-05-13T01:06:22.221Z,8.45
2023-05-13T01:09:12.015Z,8.60
2023-05-13T01:11:41.590Z,8.98
2023-05-13T01:14:23.222Z,8.48
2023-05-13T01:16:52.380Z,9.38
2023-05-13T01:19:34.787Z,9.30
2023-05-13T01:22:02.105Z,9.98
2023-05-13T01:24:29.340Z,9.93
2023-05-13T01:26:56.650Z,9.88
2023-05-13T01:29:23.938Z,9.82
2023-05-13T01:31:51.703Z,9.80
2023-05-13T01:34:20.184Z,11.00
2023-05-13T01:36:49.335Z,9.27
2023-05-13T01:39:17.468Z,10.75
2023-05-13T01:41:44.921Z,10.13
2023-05-13T01:44:12.070Z,11.23
2023-05-13T01:46:39.685Z,11.18
2023-05-13T01:49:09.009Z,10.35
2023-05-13T01:51:38.164Z,11.32
2023-05-13T01:54:05.849Z,10.30
2023-05-13T01:56:33.040Z,10.98
2023-05-13T01:59:00.227Z,10.93
2023-05-13T02:01:27.445Z,9.93
2023-05-13T02:03:54.629Z,10.25
2023-05-13T02:06:22.095Z,10.55
2023-05-13T02:08:49.534Z,10.73
2023-05-13T02:11:17.009Z,11.25
2023-05-13T02:13:44.299Z,11.07
2023-05-13T02:16:11.895Z,9.90
2023-05-13T02:18:39.092Z,10.35
2023-05-13T02:21:06.319Z,9.95
2023-05-13T02:23:33.568Z,10.90
2023-05-13T02:26:00.757Z,11.00
2023-05-13T02:28:27.977Z,11.82
2023-05-13T02:30:55.110Z,11.75
2023-05-13T02:33:23.586Z,10.32
2023-05-13T02:35:50.830Z,11.98
2023-05-13T02:38:17.996Z,11.98
2023-05-13T02:40:45.126Z,11.52
2023-05-13T02:43:12.465Z,12.15
2023-05-13T02:45:41.676Z,13.73
2023-05-13T02:48:10.964Z,14.25
2023-05-13T02:50:38.213Z,13.27
2023-05-13T02:53:05.947Z,12.00
2023-05-13T02:55:33.167Z,13.70
2023-05-13T02:58:00.570Z,13.30
2023-05-13T03:00:27.810Z,12.60
2023-05-13T03:02:55.080Z,11.82
2023-05-13T03:05:22.741Z,11.93
2023-05-13T03:07:50.057Z,11.68
2023-05-13T03:10:17.205Z,12.88
2023-05-13T03:12:44.498Z,12.60
2023-05-13T03:15:11.908Z,11.77
2023-05-13T03:17:39.110Z,12.45
2023-05-13T03:20:14.795Z,11.50
2023-05-13T03:22:42.006Z,10.20
2023-05-13T03:25:09.350Z,10.85
2023-05-13T03:27:36.669Z,10.55
2023-05-13T03:30:04.053Z,12.18
2023-05-13T03:32:32.120Z,10.98
2023-05-13T03:35:01.057Z,10.98
2023-05-13T03:37:31.446Z,12.00
2023-05-13T03:39:58.724Z,10.35
2023-05-13T03:42:30.729Z,12.15
2023-05-13T03:44:58.042Z,11.35
2023-05-13T03:47:27.613Z,11.75
2023-05-13T03:49:54.870Z,11.70
2023-05-13T03:52:22.052Z,12.02
2023-05-13T03:54:49.698Z,11.00
2023-05-13T03:57:16.911Z,12.45
2023-05-13T03:59:44.091Z,11.65
2023-05-13T04:02:11.351Z,12.15
2023-05-13T04:04:38.618Z,13.00
2023-05-13T04:07:06.347Z,12.48
2023-05-13T04:09:35.326Z,12.70
2023-05-13T04:12:03.621Z,12.75
2023-05-13T04:14:31.195Z,13.05
2023-05-13T04:16:58.608Z,12.77
2023-05-13T04:19:26.007Z,12.90
2023-05-13T04:21:53.688Z,13.48
2023-05-13T04:24:20.951Z,13.25
2023-05-13T04:26:49.502Z,12.57
2023-05-13T04:29:18.172Z,13.77
2023-05-13T04:31:46.603Z,13.57
2023-05-13T04:34:13.821Z,13.60
2023-05-13T04:36:41.089Z,13.23
2023-05-13T04:39:08.922Z,12.95
2023-05-13T04:41:36.207Z,13.18
2023-05-13T04:44:03.480Z,14.25
2023-05-13T04:46:30.965Z,12.32
2023-05-13T04:48:59.784Z,13.52
2023-05-13T04:51:27.860Z,12.95
2023-05-13T04:53:55.546Z,12.57
2023-05-13T04:56:22.792Z,13.75
2023-05-13T04:58:49.923Z,13.07
2023-05-13T05:01:17.195Z,13.55
2023-05-13T05:03:44.414Z,11.98
2023-05-13T05:06:11.726Z,13.57
2023-05-13T05:08:38.851Z,13.32
2023-05-13T05:11:06.348Z,13.48
2023-05-13T05:13:33.590Z,12.68
2023-05-13T05:16:00.746Z,13.80
2023-05-13T05:18:28.213Z,13.93
2023-05-13T05:20:55.654Z,14.82
2023-05-13T05:23:23.003Z,13.55
2023-05-13T05:25:55.347Z,13.77
2023-05-13T05:28:31.786Z,12.68
2023-05-13T05:30:58.969Z,12.90
2023-05-13T05:33:26.162Z,13.05
2023-05-13T05:35:53.340Z,12.57
2023-05-13T05:38:20.564Z,13.38
2023-05-13T05:40:47.848Z,13.23
2023-05-13T05:43:15.296Z,13.50
2023-05-13T05:45:42.611Z,11.95
2023-05-13T05:48:09.950Z,12.32
2023-05-13T05:50:37.371Z,10.93
2023-05-13T05:53:04.691Z,12.07
2023-05-13T05:55:31.962Z,11.50
2023-05-13T05:58:03.950Z,10.98
2023-05-13T06:00:31.171Z,10.93
2023-05-13T06:02:58.890Z,10.60
2023-05-13T06:05:26.212Z,9.40
2023-05-13T06:07:54.049Z,10.05
2023-05-13T06:10:21.433Z,10.10
2023-05-13T06:12:48.934Z,10.43
2023-05-13T06:15:16.438Z,10.63
2023-05-13T06:17:44.422Z,9.55
2023-05-13T06:20:12.059Z,9.85
2023-05-13T06:22:41.435Z,10.40
2023-05-13T06:25:08.902Z,10.05
2023-05-13T06:27:36.841Z,9.98
2023-05-13T06:30:04.222Z,10.70
2023-05-13T06:32:31.543Z,11.05
2023-05-13T06:34:59.015Z,9.65
2023-05-13T06:37:26.188Z,10.35
2023-05-13T06:39:53.724Z,10.23
2023-05-13T06:42:20.939Z,10.25
2023-05-13T06:44:48.144Z,10.70
2023-05-13T06:47:16.462Z,11.05
2023-05-13T06:49:44.104Z,10.88
2023-05-13T06:52:11.741Z,9.82
2023-05-13T06:54:39.304Z,9.75
2023-05-13T06:57:07.517Z,10.07
2023-05-13T06:59:36.546Z,9.68
2023-05-13T07:02:04.515Z,9.02
2023-05-13T07:04:31.997Z,9.80
2023-05-13T07:06:59.293Z,10.13
2023-05-13T07:09:27.387Z,9.82
2023-05-13T07:11:54.567Z,9.50
2023-05-13T07:14:21.883Z,8.82
2023-05-13T07:16:49.138Z,10.15
2023-05-13T07:19:16.425Z,9.95
2023-05-13T07:21:43.643Z,10.45
2023-05-13T07:24:10.810Z,9.75
2023-05-13T07:26:38.821Z,10.55
2023-05-13T07:29:06.298Z,10.07
2023-05-13T07:31:34.597Z,11.00
2023-05-13T07:34:01.749Z,11.55
2023-05-13T07:36:29.091Z,10.45
2023-05-13T07:38:56.220Z,11.13
2023-05-13T07:41:23.493Z,10.95
2023-05-13T07:43:50.705Z,11.32
2023-05-13T07:46:17.962Z,10.30
2023-05-13T07:48:45.512Z,10.48
2023-05-13T07:51:12.848Z,10.70
2023-05-13T07:53:40.054Z,10.48
2023-05-13T07:56:07.889Z,10.20
2023-05-13T07:58:35.075Z,10.35
2023-05-13T08:01:02.320Z,10.15
2023-05-13T08:03:29.546Z,9.15
2023-05-13T08:05:56.905Z,8.93
2023-05-13T08:08:24.203Z,7.90
2023-05-13T08:10:51.544Z,7.60
2023-05-13T08:13:18.739Z,8.88
2023-05-13T08:15:46.139Z,9.27
2023-05-13T08:18:13.555Z,11.00
2023-05-13T08:20:40.922Z,12.18
2023-05-13T08:23:08.102Z,11.98
2023-05-13T08:25:35.411Z,12.68
2023-05-13T08:28:03.707Z,12.60
2023-05-13T08:30:31.097Z,12.50
2023-05-13T08:32:58.364Z,11.38
2023-05-13T08:35:26.099Z,11.25
2023-05-13T08:37:53.313Z,11.82
2023-05-13T08:40:21.373Z,11.73
2023-05-13T08:42:50.116Z,11.48
2023-05-13T08:45:18.952Z,10.95
2023-05-13T08:47:46.094Z,11.55
2023-05-13T08:50:13.603Z,10.75
2023-05-13T08:52:41.160Z,10.75
2023-05-13T08:55:09.095Z,10.43
2023-05-13T08:57:36.255Z,10.00
2023-05-13T09:00:04.844Z,9.50
2023-05-13T09:02:32.268Z,9.27
2023-05-13T09:05:03.171Z,9.38
2023-05-13T09:07:33.734Z,9.50
2023-05-13T09:10:01.052Z,10.48
2023-05-13T09:12:47.160Z,10.95
2023-05-13T09:15:15.727Z,10.95
2023-05-13T09:17:44.151Z,11.65
2023-05-13T09:20:12.086Z,11.07
2023-05-13T09:22:43.143Z,11.50
2023-05-13T09:25:12.845Z,10.65
2023-05-13T09:27:41.323Z,10.98
2023-05-13T09:30:08.946Z,11.65
2023-05-13T09:32:36.223Z,10.82
2023-05-13T09:35:29.886Z,10.52
2023-05-13T09:37:57.475Z,10.30
2023-05-13T09:40:24.808Z,10.77
2023-05-13T09:42:52.226Z,10.05
2023-05-13T09:45:19.709Z,10.82
2023-05-13T09:47:53.600Z,10.13
2023-05-13T09:50:21.264Z,9.00
2023-05-13T09:52:48.741Z,9.60
2023-05-13T09:55:16.105Z,9.80
2023-05-13T09:57:43.438Z,9.15
2023-05-13T10:00:21.118Z,8.35
2023-05-13T10:02:56.870Z,8.63
2023-05-13T10:05:24.753Z,7.07
2023-05-13T10:07:52.365Z,7.20
2023-05-13T10:10:20.711Z,6.95
2023-05-13T10:12:48.459Z,7.00
2023-05-13T10:15:15.625Z,8.10
2023-05-13T10:17:44.932Z,7.50
2023-05-13T10:20:12.398Z,7.05
2023-05-13T10:22:39.901Z,7.50
2023-05-13T10:25:08.042Z,6.95
2023-05-13T10:27:35.424Z,7.18
2023-05-13T10:30:09.731Z,6.75
2023-05-13T10:32:39.128Z,7.15
2023-05-13T10:35:14.577Z,6.57
2023-05-13T10:37:45.006Z,6.75
2023-05-13T10:40:23.370Z,6.35
2023-05-13T10:43:10.161Z,6.05
2023-05-13T10:45:37.527Z,5.53
2023-05-13T10:48:09.463Z,5.70
2023-05-13T10:50:38.896Z,4.93
2023-05-13T10:53:11.109Z,5.10
2023-05-13T10:55:45.505Z,5.43
2023-05-13T10:58:14.116Z,4.57
2023-05-13T11:00:42.378Z,4.50
2023-05-13T11:03:10.396Z,5.10
2023-05-13T11:05:47.792Z,4.63
2023-05-13T11:08:34.204Z,5.22
2023-05-13T11:11:01.512Z,4.97
2023-05-13T11:13:38.224Z,4.38
2023-05-13T11:16:08.044Z,4.70
2023-05-13T11:18:36.458Z,4.53
2023-05-13T11:21:07.738Z,4.30
2023-05-13T11:23:50.458Z,4.50
2023-05-13T11:26:18.815Z,3.90
2023-05-13T11:28:55.190Z,4.10
2023-05-13T11:31:23.148Z,4.05
2023-05-13T11:34:11.788Z,3.85
2023-05-13T11:36:39.839Z,4.00
2023-05-13T11:39:12.186Z,3.80
2023-05-13T11:41:41.371Z,3.42
2023-05-13T11:44:08.988Z,3.50
2023-05-13T11:46:36.389Z,4.55
2023-05-13T11:49:05.824Z,3.10
2023-05-13T11:51:35.107Z,3.30
2023-05-13T11:54:03.134Z,3.25
2023-05-13T11:56:31.017Z,3.20
2023-05-13T11:59:14.693Z,3.13
2023-05-13T12:01:42.185Z,3.28
2023-05-13T12:04:09.447Z,2.67
2023-05-13T12:06:44.524Z,2.85
2023-05-13T12:09:12.706Z,2.95
2023-05-13T12:11:40.941Z,2.83
2023-05-13T12:14:08.600Z,2.97
2023-05-13T12:16:35.789Z,3.03
2023-05-13T12:19:07.279Z,3.00
2023-05-13T12:21:34.721Z,2.70
2023-05-13T12:24:02.125Z,2.63
2023-05-13T12:26:29.674Z,2.90
2023-05-13T12:28:58.199Z,2.90
2023-05-13T12:31:25.384Z,2.67
2023-05-13T12:33:53.144Z,2.70
2023-05-13T12:36:20.559Z,2.58
2023-05-13T12:39:14.151Z,2.88
2023-05-13T12:41:42.496Z,3.20
2023-05-13T12:44:11.144Z,3.00
2023-05-13T12:46:39.750Z,2.58
2023-05-13T12:49:07.156Z,2.88
2023-05-13T12:51:34.816Z,2.38
2023-05-13T12:54:02.298Z,2.80
2023-05-13T12:56:29.529Z,2.63
2023-05-13T12:58:57.111Z,2.88
2023-05-13T13:01:24.466Z,3.30
2023-05-13T13:03:51.842Z,3.03
2023-05-13T13:06:19.266Z,3.72
2023-05-13T13:08:46.460Z,3.80
2023-05-13T13:11:18.980Z,3.17
2023-05-13T13:13:50.556Z,3.22
2023-05-13T13:16:18.004Z,3.13
2023-05-13T13:18:45.321Z,3.17
2023-05-13T13:21:12.597Z,3.20
2023-05-13T13:23:39.779Z,3.30
2023-05-13T13:26:07.292Z,3.88
2023-05-13T13:28:34.563Z,3.25
2023-05-13T13:31:01.889Z,3.25
2023-05-13T13:33:29.180Z,3.50
2023-05-13T13:35:58.220Z,3.40
2023-05-13T13:38:25.426Z,2.92
2023-05-13T13:40:52.614Z,3.92
2023-05-13T13:43:19.938Z,3.85
2023-05-13T13:45:47.188Z,2.92
2023-05-13T13:48:14.487Z,3.50
2023-05-13T13:50:41.824Z,3.10
2023-05-13T13:53:09.272Z,3.47
2023-05-13T13:55:36.431Z,3.47
2023-05-13T13:58:03.600Z,3.63
2023-05-13T14:00:30.862Z,3.80
2023-05-13T14:02:58.130Z,3.58
2023-05-13T14:05:25.479Z,3.30
2023-05-13T14:07:54.155Z,3.40
2023-05-13T14:10:22.042Z,3.40
2023-05-13T14:12:49.545Z,3.60
2023-05-13T14:15:17.139Z,3.58
2023-05-13T14:17:44.443Z,3.08
2023-05-13T14:20:12.357Z,2.85
2023-05-13T14:22:39.819Z,3.20
2023-05-13T14:25:07.154Z,3.00
2023-05-13T14:27:36.357Z,3.20
2023-05-13T14:30:03.720Z,3.10
2023-05-13T14:32:30.954Z,2.58
2023-05-13T14:34:58.248Z,2.70
2023-05-13T14:37:25.588Z,2.67
2023-05-13T14:39:56.453Z,2.28
2023-05-13T14:42:23.990Z,2.00
2023-05-13T14:44:51.144Z,2.25
2023-05-13T14:47:18.458Z,2.15
2023-05-13T14:49:45.630Z,2.30
2023-05-13T14:52:12.936Z,2.40
2023-05-13T14:54:48.820Z,1.90
2023-05-13T14:57:16.077Z,2.20
2023-05-13T14:59:43.371Z,2.42
2023-05-13T15:02:11.858Z,2.72
2023-05-13T15:04:39.073Z,1.90
2023-05-13T15:07:07.963Z,2.20
2023-05-13T15:09:35.139Z,2.25
2023-05-13T15:12:02.264Z,2.20
2023-05-13T15:14:29.431Z,2.17
2023-05-13T15:16:56.803Z,2.42
2023-05-13T15:19:23.958Z,2.42
2023-05-13T15:21:51.114Z,2.40
2023-05-13T15:24:18.240Z,2.28
2023-05-13T15:26:45.356Z,2.10
2023-05-13T15:29:12.488Z,2.20
2023-05-13T15:31:39.650Z,2.08
2023-05-13T15:34:06.731Z,2.50
2023-05-13T15:36:35.456Z,2.00
2023-05-13T15:39:02.812Z,2.10
2023-05-13T15:41:29.995Z,2.40
2023-05-13T15:43:57.081Z,2.53
2023-05-13T15:46:24.389Z,2.90
2023-05-13T15:48:51.689Z,2.40
2023-05-13T15:51:18.818Z,2.78
2023-05-13T15:53:46.443Z,2.80
2023-05-13T15:56:13.627Z,2.90
2023-05-13T15:58:40.988Z,3.90
2023-05-13T16:01:08.126Z,3.40
2023-05-13T16:03:36.518Z,3.63
2023-05-13T16:06:05.073Z,3.13
2023-05-13T16:08:32.208Z,3.33
2023-05-13T16:10:59.309Z,2.72
2023-05-13T16:13:26.473Z,3.60
2023-05-13T16:15:54.193Z,2.60
2023-05-13T16:18:21.348Z,2.22
2023-05-13T16:20:48.465Z,2.60
2023-05-13T16:23:15.769Z,2.38
2023-05-13T16:25:43.970Z,2.20
2023-05-13T16:28:11.513Z,2.88
2023-05-13T16:30:39.440Z,2.40
2023-05-13T16:33:08.024Z,2.30
2023-05-13T16:35:35.587Z,2.42
2023-05-13T16:38:02.756Z,2.50
2023-05-13T16:40:31.965Z,2.95
2023-05-13T16:43:02.561Z,2.00
2023-05-13T16:45:30.985Z,2.22
2023-05-13T16:47:58.225Z,2.47
2023-05-13T16:50:25.744Z,1.90
2023-05-13T16:52:54.455Z,2.00
2023-05-13T16:55:22.466Z,2.00
2023-05-13T16:57:49.660Z,2.00
2023-05-13T17:00:17.002Z,2.00
2023-05-13T17:02:44.257Z,1.65
2023-05-13T17:05:11.467Z,2.17
2023-05-13T17:07:38.585Z,2.33
2023-05-13T17:10:06.000Z,1.90
2023-05-13T17:12:33.184Z,2.20
2023-05-13T17:15:00.362Z,1.83
2023-05-13T17:17:27.466Z,1.88
2023-05-13T17:19:54.606Z,2.08
2023-05-13T17:22:21.713Z,1.63
2023-05-13T17:24:48.842Z,1.42
2023-05-13T17:27:15.926Z,1.50
2023-05-13T17:29:43.078Z,1.70
2023-05-13T17:32:10.208Z,1.60
2023-05-13T17:34:37.307Z,1.90
2023-05-13T17:37:04.444Z,1.80
2023-05-13T17:39:31.562Z,1.80
2023-05-13T17:41:58.676Z,1.50
2023-05-13T17:44:25.859Z,1.30
2023-05-13T17:46:52.980Z,1.60
2023-05-13T17:49:20.138Z,1.80
2023-05-13T17:51:47.291Z,1.55
2023-05-13T17:54:14.455Z,1.48
2023-05-13T17:56:41.582Z,1.30
2023-05-13T17:59:08.748Z,1.60
2023-05-13T18:01:35.904Z,1.60
2023-05-13T18:04:03.023Z,1.65
2023-05-13T18:06:30.143Z,1.65
2023-05-13T18:08:57.552Z,1.50
2023-05-13T18:11:24.715Z,1.60
2023-05-13T18:13:51.814Z,1.50
2023-05-13T18:16:19.569Z,1.60
2023-05-13T18:18:48.565Z,1.50
2023-05-13T18:21:16.066Z,1.50
2023-05-13T18:23:45.762Z,1.58
2023-05-13T18:26:12.942Z,1.70
2023-05-13T18:28:44.840Z,1.67
2023-05-13T18:31:12.141Z,4.05
2023-05-13T18:33:39.322Z,1.92
2023-05-13T18:36:06.720Z,1.83
2023-05-13T18:38:33.823Z,1.77
2023-05-13T18:41:03.327Z,1.73
2023-05-13T18:43:30.691Z,1.60
2023-05-13T18:45:58.272Z,1.60
2023-05-13T18:48:25.504Z,1.65
2023-05-13T18:50:55.426Z,2.05
2023-05-13T18:53:22.710Z,1.92
2023-05-13T18:55:49.815Z,1.95
2023-05-13T18:58:17.330Z,1.52
2023-05-13T19:00:44.531Z,1.80
2023-05-13T19:03:11.801Z,2.00
2023-05-13T19:05:40.401Z,1.70
2023-05-13T19:08:07.973Z,1.70
2023-05-13T19:10:40.014Z,2.40
2023-05-13T19:13:07.658Z,2.38
2023-05-13T19:15:34.844Z,1.90
2023-05-13T19:18:02.097Z,2.10
2023-05-13T19:20:29.899Z,2.25
2023-05-13T19:22:57.181Z,2.05
2023-05-13T19:25:24.438Z,1.70
2023-05-13T19:27:51.632Z,1.58
2023-05-13T19:30:18.775Z,1.10
2023-05-13T19:32:45.965Z,1.30
2023-05-13T19:35:13.087Z,1.15
2023-05-13T19:37:40.349Z,1.20
2023-05-13T19:40:07.735Z,1.10
2023-05-13T19:42:34.933Z,1.00
2023-05-13T19:45:02.187Z,1.13
2023-05-13T19:47:31.022Z,1.00
2023-05-13T19:49:58.276Z,0.98
2023-05-13T19:52:25.386Z,1.10
2023-05-13T19:54:52.932Z,1.58
2023-05-13T19:57:20.069Z,1.00
2023-05-13T19:59:47.526Z,0.85
2023-05-13T20:02:14.696Z,1.00
2023-05-13T20:04:41.949Z,0.90
2023-05-13T20:07:09.464Z,1.00
2023-05-13T20:09:37.092Z,0.88
2023-05-13T20:12:04.620Z,0.90
2023-05-13T20:14:45.125Z,1.20
2023-05-13T20:17:15.363Z,1.00
2023-05-13T20:19:42.620Z,1.20
2023-05-13T20:22:10.059Z,1.40
2023-05-13T20:24:37.175Z,1.30
2023-05-13T20:27:04.322Z,1.65
2023-05-13T20:29:38.637Z,1.60
2023-05-13T20:32:06.469Z,1.40
2023-05-13T20:34:34.183Z,1.85
2023-05-13T20:37:01.551Z,1.70
2023-05-13T20:39:28.974Z,1.85
2023-05-13T20:41:56.666Z,2.15
2023-05-13T20:44:24.379Z,1.90
2023-05-13T20:46:51.617Z,2.40
2023-05-13T20:49:18.864Z,2.20
2023-05-13T20:51:48.755Z,2.08
2023-05-13T20:54:16.378Z,2.20
2023-05-13T20:56:43.840Z,2.30
2023-05-13T20:59:10.980Z,2.50
2023-05-13T21:01:38.254Z,3.20
2023-05-13T21:04:06.417Z,2.72
2023-05-13T21:06:33.658Z,3.13
2023-05-13T21:09:00.858Z,2.78
2023-05-13T21:11:27.970Z,3.00
2023-05-13T21:13:55.097Z,2.78
2023-05-13T21:16:22.506Z,2.78
2023-05-13T21:18:49.771Z,3.42
2023-05-13T21:21:16.981Z,2.90
2023-05-13T21:23:45.573Z,3.42
2023-05-13T21:26:12.732Z,3.25
2023-05-13T21:28:40.644Z,3.92
2023-05-13T21:31:07.826Z,3.10
2023-05-13T21:33:34.998Z,3.35
2023-05-13T21:36:02.139Z,3.33
2023-05-13T21:38:29.566Z,3.92
2023-05-13T21:40:56.720Z,4.20
2023-05-13T21:43:23.800Z,4.47
2023-05-13T21:45:50.914Z,5.47
2023-05-13T21:48:18.155Z,5.18
2023-05-13T21:50:45.456Z,5.65
2023-05-13T21:53:13.158Z,6.40
2023-05-13T21:55:40.269Z,7.03
2023-05-13T21:58:07.387Z,6.80
2023-05-13T22:00:34.541Z,6.95
2023-05-13T22:03:01.866Z,8.48
2023-05-13T22:05:29.154Z,7.97
2023-05-13T22:07:56.302Z,8.27
2023-05-13T22:10:23.718Z,8.43
2023-05-13T22:12:51.097Z,7.97
2023-05-13T22:15:18.199Z,8.05
2023-05-13T22:17:46.825Z,8.75
2023-05-13T22:20:15.522Z,8.75
2023-05-13T22:22:42.788Z,8.55
2023-05-13T22:25:10.063Z,8.88
2023-05-13T22:27:37.278Z,8.15
2023-05-13T22:30:04.535Z,9.80
2023-05-13T22:32:34.249Z,9.80
2023-05-13T22:35:01.388Z,9.10
2023-05-13T22:37:28.514Z,9.50
2023-05-13T22:39:55.627Z,10.57
2023-05-13T22:42:23.196Z,10.52
2023-05-13T22:44:50.320Z,11.20
2023-05-13T22:47:17.458Z,10.32
2023-05-13T22:49:44.607Z,10.18
2023-05-13T22:52:11.723Z,10.75
2023-05-13T22:54:38.814Z,10.95
2023-05-13T22:57:06.071Z,11.15
2023-05-13T22:59:33.193Z,12.30
2023-05-13T23:02:00.519Z,11.10
2023-05-13T23:04:28.544Z,11.55
2023-05-13T23:06:55.725Z,11.07
2023-05-13T23:09:22.879Z,11.82
2023-05-13T23:11:49.980Z,12.10
2023-05-13T23:14:17.069Z,12.23
2023-05-13T23:16:44.488Z,11.85
2023-05-13T23:19:11.825Z,10.82
2023-05-13T23:21:38.990Z,11.15
2023-05-13T23:24:06.219Z,11.85
2023-05-13T23:26:33.537Z,11.65
2023-05-13T23:29:00.683Z,12.20
2023-05-13T23:31:27.839Z,11.95
2023-05-13T23:33:54.981Z,11.30
2023-05-13T23:36:22.095Z,11.80
2023-05-13T23:38:50.766Z,11.27
2023-05-13T23:41:17.863Z,12.48
2023-05-13T23:43:45.069Z,12.30
2023-05-13T23:46:12.311Z,12.27
2023-05-13T23:48:39.479Z,12.30
2023-05-13T23:51:06.906Z,12.05
2023-05-13T23:53:34.070Z,11.27
2023-05-13T23:56:01.168Z,12.32
2023-05-13T23:58:28.309Z,12.57
